Time;durP1;ratioP1;P1;durP2;ratioP2;P2;SDS_P1;SDS_P2;PMS_P1;PMS_P2;Temp;Humidity;BMP_temperature;BMP_pressure;BME280_temperature;BME280_humidity;BME280_pressure;Samples;Min_cycle;Max_cycle;Signal;HPM_P1;HPM_P2
2023/11/15 00:00:52;;;;;;;3.00;0.70;;;;;;;7.77;84.30;94844.74;110767;1273;22126;-77
2023/11/15 00:03:41;;;;;;;2.60;0.50;;;;;;;7.70;84.39;94855.91;110667;1273;22208;-77
2023/11/15 00:06:10;;;;;;;1.40;0.40;;;;;;;7.59;84.43;94854.90;110716;1273;22259;-77
2023/11/15 00:08:38;;;;;;;2.70;0.50;;;;;;;7.48;84.58;94849.67;110735;1273;22151;-77
2023/11/15 00:11:06;;;;;;;0.70;0.30;;;;;;;7.43;84.61;94844.88;110737;1273;22133;-77
2023/11/15 00:13:34;;;;;;;1.40;0.30;;;;;;;7.38;84.79;94837.61;110735;1273;23135;-77
2023/11/15 00:16:04;;;;;;;2.90;0.80;;;;;;;7.35;84.81;94840.63;110743;1273;22923;-77
2023/11/15 00:18:32;;;;;;;180.70;107.40;;;;;;;7.36;84.87;94837.48;110709;1273;22936;-77
2023/11/15 00:21:00;;;;;;;12.70;11.40;;;;;;;7.36;85.02;94835.20;110587;1273;22114;-77
2023/11/15 00:23:29;;;;;;;16.20;14.60;;;;;;;7.36;84.84;94829.41;110709;1273;22187;-77
2023/11/15 00:25:58;;;;;;;1.50;0.40;;;;;;;7.36;84.81;94835.02;110720;1269;22259;-77
2023/11/15 00:28:26;;;;;;;12.00;10.80;;;;;;;7.40;84.98;94843.88;110554;1273;22139;-77
2023/11/15 00:30:54;;;;;;;3.20;2.50;;;;;;;7.37;84.80;94840.25;110717;1273;22607;-77
2023/11/15 00:33:22;;;;;;;1.70;0.80;;;;;;;7.33;84.73;94841.88;110731;1273;22947;-77
2023/11/15 00:35:51;;;;;;;2.20;1.60;;;;;;;7.30;84.99;94835.47;110559;1273;22134;-77
2023/11/15 00:38:19;;;;;;;2.60;0.50;;;;;;;7.31;84.93;94826.02;110581;1273;22128;-77
2023/11/15 00:40:48;;;;;;;2.10;0.50;;;;;;;7.29;84.83;94815.71;110717;1273;23099;-77
2023/11/15 00:43:18;;;;;;;2.90;1.50;;;;;;;7.22;85.22;94810.09;110621;1273;22106;-77
2023/11/15 00:45:46;;;;;;;0.60;0.40;;;;;;;7.21;85.08;94798.73;110730;1273;22758;-77
2023/11/15 00:48:15;;;;;;;0.70;0.30;;;;;;;7.21;85.21;94788.43;110738;1273;22138;-77
2023/11/15 00:50:43;;;;;;;0.70;0.40;;;;;;;7.23;85.25;94786.10;110721;1273;22851;-77
2023/11/15 00:53:12;;;;;;;0.70;0.30;;;;;;;7.21;85.16;94782.82;110711;1273;22111;-77
2023/11/15 00:55:40;;;;;;;1.80;0.50;;;;;;;7.17;84.80;94779.39;110680;1273;23193;-77
2023/11/15 00:58:09;;;;;;;1.40;0.40;;;;;;;7.17;85.40;94778.88;110738;1273;22206;-77
2023/11/15 01:00:44;;;;;;;0.40;0.20;;;;;;;7.19;85.10;94775.69;110722;1273;22860;-77
2023/11/15 01:03:15;;;;;;;0.10;0.10;;;;;;;7.23;85.50;94771.25;110711;1273;22252;-77
2023/11/15 01:05:43;;;;;;;0.40;0.20;;;;;;;7.22;84.71;94764.77;110572;1273;22162;-77
2023/11/15 01:08:11;;;;;;;1.00;0.20;;;;;;;7.17;84.68;94763.83;110732;1273;22194;-77
2023/11/15 01:10:39;;;;;;;3.10;1.30;;;;;;;7.21;85.16;94762.71;110582;1273;22140;-77
2023/11/15 01:13:09;;;;;;;1.40;0.30;;;;;;;7.26;85.25;94757.18;110593;1264;22260;-77
2023/11/15 01:15:37;;;;;;;1.60;0.20;;;;;;;7.23;84.96;94755.31;110701;1273;22158;-77
2023/11/15 01:18:07;;;;;;;7.10;0.30;;;;;;;7.25;85.62;94759.13;110536;1273;22849;-77
2023/11/15 01:20:38;;;;;;;3.40;1.00;;;;;;;7.25;85.71;94755.30;110724;1273;22702;-77
2023/11/15 01:23:06;;;;;;;5.20;1.50;;;;;;;7.25;85.73;94753.89;110538;1273;22121;-77
2023/11/15 01:25:35;;;;;;;2.90;1.30;;;;;;;7.29;86.14;94756.95;110716;1273;22121;-77
2023/11/15 01:28:04;;;;;;;8.10;2.50;;;;;;;7.34;86.06;94763.50;110738;1273;22369;-77
2023/11/15 01:30:32;;;;;;;12.20;5.80;;;;;;;7.40;86.02;94773.20;110736;1273;22856;-77
2023/11/15 01:33:00;;;;;;;10.90;4.60;;;;;;;7.40;85.81;94776.33;110710;1273;22122;-77
2023/11/15 01:35:29;;;;;;;8.40;4.50;;;;;;;7.38;85.51;94779.16;110727;1273;22135;-77
2023/11/15 01:37:57;;;;;;;3.30;1.40;;;;;;;7.32;85.15;94779.82;110717;1273;22837;-77
2023/11/15 01:40:26;;;;;;;2.10;1.00;;;;;;;7.26;84.99;94774.51;110732;1273;22130;-77
2023/11/15 01:42:55;;;;;;;1.90;0.80;;;;;;;7.15;84.69;94768.23;110720;1273;22151;-76
2023/11/15 01:45:23;;;;;;;3.30;1.50;;;;;;;7.03;85.27;94755.52;110727;1273;22130;-77
2023/11/15 01:47:51;;;;;;;2.40;1.30;;;;;;;6.97;86.27;94750.39;110720;1273;22138;-76
2023/11/15 01:50:19;;;;;;;2.20;1.10;;;;;;;6.92;86.44;94756.23;110641;1273;22123;-76
2023/11/15 01:52:48;;;;;;;2.10;0.90;;;;;;;6.85;86.85;94740.27;110613;1273;22421;-76
2023/11/15 01:55:19;;;;;;;2.40;1.00;;;;;;;6.84;86.99;94748.34;110567;1273;22142;-76
2023/11/15 01:57:49;;;;;;;3.00;1.10;;;;;;;6.87;87.20;94747.59;110500;1273;22143;-76
2023/11/15 02:00:18;;;;;;;2.00;1.10;;;;;;;6.87;87.17;94748.29;110619;1273;22284;-77
2023/11/15 02:02:46;;;;;;;1.00;0.70;;;;;;;6.87;86.85;94764.38;110569;1273;22103;-76
2023/11/15 02:05:15;;;;;;;2.60;1.00;;;;;;;6.84;86.48;94763.20;110568;1273;22342;-76
2023/11/15 02:07:43;;;;;;;1.60;0.70;;;;;;;6.79;86.24;94752.45;110672;1273;22787;-76
2023/11/15 02:10:15;;;;;;;3.40;0.70;;;;;;;6.72;86.18;94749.25;110715;1273;22132;-77
2023/11/15 02:12:43;;;;;;;2.00;1.00;;;;;;;6.68;86.61;94750.36;110704;1273;22129;-76
2023/11/15 02:15:15;;;;;;;0.80;0.70;;;;;;;6.69;86.73;94748.95;110728;1273;22308;-76
2023/11/15 02:17:45;;;;;;;0.90;0.50;;;;;;;6.73;87.33;94740.83;110742;1273;22143;-77
2023/11/15 02:20:16;;;;;;;12.70;6.50;;;;;;;6.75;87.68;94723.87;110545;1273;22179;-76
2023/11/15 02:22:46;;;;;;;30.50;18.00;;;;;;;6.78;88.17;94733.59;110602;1273;23034;-76
2023/11/15 02:25:16;;;;;;;18.40;10.70;;;;;;;6.76;87.99;94743.24;110627;1273;22125;-76
2023/11/15 02:27:44;;;;;;;3.20;1.20;;;;;;;6.73;87.55;94746.61;110573;1273;22129;-76
2023/11/15 02:30:12;;;;;;;4.20;1.00;;;;;;;6.72;87.94;94751.70;110716;1273;22196;-76
2023/11/15 02:32:41;;;;;;;1.70;1.20;;;;;;;6.76;88.25;94760.73;110689;1273;22100;-76
2023/11/15 02:35:10;;;;;;;3.00;1.50;;;;;;;6.80;88.23;94761.70;110585;1273;22562;-77
2023/11/15 02:37:38;;;;;;;1.80;1.40;;;;;;;6.82;87.98;94756.23;110698;1273;22933;-76
2023/11/15 02:40:09;;;;;;;3.30;1.80;;;;;;;6.78;87.62;94762.09;110621;1273;22799;-77
2023/11/15 02:42:38;;;;;;;4.30;2.00;;;;;;;6.80;88.15;94771.48;110719;1273;22786;-76
2023/11/15 02:45:06;;;;;;;1.30;0.70;;;;;;;6.88;88.24;94769.61;110707;1273;22270;-77
2023/11/15 02:47:34;;;;;;;4.30;1.40;;;;;;;6.92;87.87;94758.34;110560;1273;22137;-76
2023/11/15 02:50:03;;;;;;;0.80;0.80;;;;;;;6.95;87.90;94755.67;110587;1273;22140;-76
2023/11/15 02:52:32;;;;;;;1.20;1.00;;;;;;;7.00;87.85;94765.89;110685;1273;22149;-77
2023/11/15 02:55:01;;;;;;;2.40;1.40;;;;;;;6.99;87.44;94776.92;110716;1273;22233;-76
2023/11/15 02:57:29;;;;;;;1.40;1.20;;;;;;;6.93;87.15;94783.85;110703;1273;22173;-76
2023/11/15 02:59:57;;;;;;;1.90;1.20;;;;;;;6.96;87.65;94783.96;110565;1273;22181;-77
2023/11/15 03:02:26;;;;;;;0.80;0.80;;;;;;;7.03;87.82;94786.11;110700;1272;22873;-76
2023/11/15 03:04:54;;;;;;;0.40;0.40;;;;;;;7.08;87.48;94787.41;110715;1273;22259;-76
2023/11/15 03:07:23;;;;;;;1.00;0.40;;;;;;;7.11;87.46;94794.20;110683;1273;22904;-76
2023/11/15 03:09:51;;;;;;;0.80;0.30;;;;;;;7.16;87.35;94798.48;110701;1273;22110;-76
2023/11/15 03:12:19;;;;;;;0.10;0.10;;;;;;;7.21;87.21;94805.75;110691;1273;22856;-76
2023/11/15 03:14:47;;;;;;;0.40;0.20;;;;;;;7.20;86.69;94810.83;110610;1273;22140;-76
2023/11/15 03:17:17;;;;;;;0.40;0.30;;;;;;;7.21;86.63;94817.81;110705;1273;22283;-76
2023/11/15 03:19:46;;;;;;;0.60;0.30;;;;;;;7.25;86.67;94822.98;110471;1267;22813;-76
2023/11/15 03:22:14;;;;;;;0.90;0.30;;;;;;;7.27;86.33;94815.23;110569;1273;22617;-76
2023/11/15 03:24:45;;;;;;;0.40;0.20;;;;;;;7.29;86.11;94805.77;110705;1273;22354;-77
2023/11/15 03:27:13;;;;;;;1.70;0.20;;;;;;;7.32;86.01;94808.50;110707;1273;22931;-76
2023/11/15 03:29:41;;;;;;;2.30;0.90;;;;;;;7.22;85.49;94813.41;110688;1273;22252;-76
2023/11/15 03:32:10;;;;;;;2.80;1.80;;;;;;;7.17;86.42;94814.90;110715;1273;22364;-76
2023/11/15 03:34:41;;;;;;;5.30;2.80;;;;;;;7.25;86.99;94819.48;110708;1273;22190;-76
2023/11/15 03:37:10;;;;;;;6.30;2.80;;;;;;;7.29;86.52;94814.86;110640;1273;22976;-76
2023/11/15 03:39:38;;;;;;;2.20;1.50;;;;;;;7.30;86.33;94824.45;110643;1273;22150;-76
2023/11/15 03:42:07;;;;;;;2.70;0.70;;;;;;;7.25;85.50;94815.46;110640;1273;22379;-76
2023/11/15 03:44:35;;;;;;;13.60;6.40;;;;;;;7.06;85.30;94797.59;110559;1273;22360;-76
2023/11/15 03:47:03;;;;;;;25.50;11.90;;;;;;;6.79;87.34;94775.50;110701;1273;22134;-76
2023/11/15 03:49:31;;;;;;;14.10;6.60;;;;;;;6.56;88.61;94757.73;110683;1273;22252;-75
2023/11/15 03:52:00;;;;;;;4.70;2.80;;;;;;;6.46;88.76;94728.02;110539;1273;22354;-77
2023/11/15 03:54:28;;;;;;;1.60;0.80;;;;;;;6.35;89.24;94703.92;110719;1273;22169;-77
2023/11/15 03:56:56;;;;;;;1.00;0.80;;;;;;;6.25;89.84;94695.70;110697;1273;23177;-77
2023/11/15 03:59:24;;;;;;;1.30;0.70;;;;;;;6.24;89.89;94707.60;110718;1273;22154;-77
2023/11/15 04:01:53;;;;;;;0.40;0.30;;;;;;;6.22;89.42;94723.52;110709;1273;22265;-77
2023/11/15 04:04:25;;;;;;;1.00;0.50;;;;;;;6.25;89.20;94725.91;110605;1273;22953;-77
2023/11/15 04:06:54;;;;;;;3.10;0.50;;;;;;;6.33;89.39;94707.96;110540;1273;22923;-77
2023/11/15 04:09:22;;;;;;;2.80;0.80;;;;;;;6.38;88.83;94713.11;110731;1273;22751;-77
2023/11/15 04:11:52;;;;;;;2.30;1.00;;;;;;;6.38;88.22;94722.73;110707;1273;22233;-77
2023/11/15 04:14:21;;;;;;;0.70;0.50;;;;;;;6.39;88.48;94722.55;110574;1273;22309;-77
2023/11/15 04:16:50;;;;;;;1.60;0.70;;;;;;;6.43;88.88;94725.29;110576;1273;23038;-78
2023/11/15 04:19:21;;;;;;;3.60;1.60;;;;;;;6.44;88.68;94722.47;110578;1273;22135;-78
2023/11/15 04:21:51;;;;;;;3.60;1.30;;;;;;;6.49;88.67;94718.88;110517;1273;22156;-79
2023/11/15 04:24:39;;;;;;;4.30;3.60;;;;;;;6.58;88.86;94700.05;110629;1272;22091;-77
2023/11/15 04:27:07;;;;;;;4.70;3.30;;;;;;;6.63;88.40;94705.71;110570;1273;22319;-79
2023/11/15 04:29:42;;;;;;;3.20;1.80;;;;;;;6.65;88.36;94714.92;110724;1273;22144;-78
2023/11/15 04:32:10;;;;;;;1.10;1.00;;;;;;;6.75;88.68;94696.77;110716;1273;22118;-78
2023/11/15 04:34:38;;;;;;;2.70;1.60;;;;;;;6.81;88.28;94681.98;110634;1273;22262;-78
2023/11/15 04:37:06;;;;;;;1.10;0.50;;;;;;;6.83;87.58;94657.45;110707;1273;22120;-78
2023/11/15 04:39:34;;;;;;;1.40;0.70;;;;;;;6.76;87.31;94675.77;110681;1273;22097;-78
2023/11/15 04:42:04;;;;;;;1.40;0.80;;;;;;;6.79;87.99;94687.77;110556;1273;22134;-77
2023/11/15 04:44:32;;;;;;;1.30;0.40;;;;;;;6.86;88.02;94691.67;110691;1273;22193;-78
2023/11/15 04:47:00;;;;;;;1.10;0.60;;;;;;;6.89;87.52;94689.67;110719;1273;22093;-78
2023/11/15 04:49:29;;;;;;;1.70;0.60;;;;;;;6.89;86.94;94682.87;110738;1273;22127;-78
2023/11/15 04:51:57;;;;;;;0.90;0.70;;;;;;;6.82;86.46;94668.86;110691;1273;22112;-78
2023/11/15 04:54:25;;;;;;;8.20;5.00;;;;;;;6.79;87.09;94656.14;110621;1273;23028;-78
2023/11/15 04:56:54;;;;;;;1.00;0.60;;;;;;;6.83;87.30;94653.98;110632;1273;22146;-78
2023/11/15 04:59:22;;;;;;;1.40;0.70;;;;;;;6.85;87.39;94676.83;110681;1273;22164;-78
2023/11/15 05:01:50;;;;;;;3.60;1.50;;;;;;;6.86;86.95;94685.88;110735;1273;22112;-78
2023/11/15 05:04:18;;;;;;;4.10;2.50;;;;;;;6.83;86.71;94671.80;110625;1263;22268;-78
2023/11/15 05:06:48;;;;;;;4.80;3.30;;;;;;;6.75;86.44;94655.16;110714;1273;22435;-79
2023/11/15 05:09:16;;;;;;;20.70;15.00;;;;;;;6.66;86.89;94646.77;110727;1273;22113;-78
2023/11/15 05:11:44;;;;;;;17.10;11.10;;;;;;;6.62;86.61;94648.43;110706;1273;22158;-78
2023/11/15 05:14:13;;;;;;;9.90;6.70;;;;;;;6.49;86.15;94670.66;110691;1273;22127;-78
2023/11/15 05:16:41;;;;;;;8.70;6.00;;;;;;;6.36;86.19;94685.23;110699;1273;22309;-78
2023/11/15 05:19:09;;;;;;;208.90;89.50;;;;;;;6.30;86.97;94674.84;110691;1273;22746;-78
2023/11/15 05:21:37;;;;;;;57.50;30.60;;;;;;;6.25;87.55;94673.52;110676;1273;22192;-78
2023/11/15 05:24:06;;;;;;;37.90;23.40;;;;;;;6.23;87.74;94688.92;110699;1269;22343;-78
2023/11/15 05:26:34;;;;;;;13.60;9.60;;;;;;;6.19;87.71;94712.39;110723;1273;22264;-78
2023/11/15 05:29:02;;;;;;;9.50;6.30;;;;;;;6.16;87.95;94705.27;110527;1273;22590;-78
2023/11/15 05:31:31;;;;;;;8.50;5.10;;;;;;;6.12;88.00;94696.43;110702;1273;22137;-79
2023/11/15 05:33:59;;;;;;;4.60;3.30;;;;;;;6.12;88.06;94696.96;110686;1273;22109;-78
2023/11/15 05:36:27;;;;;;;7.80;4.20;;;;;;;6.11;87.90;94695.75;110628;1273;22289;-78
2023/11/15 05:38:55;;;;;;;38.40;14.10;;;;;;;6.09;87.93;94687.06;110659;1273;22145;-78
2023/11/15 05:41:23;;;;;;;22.90;11.20;;;;;;;6.07;88.68;94685.70;110705;1273;22099;-78
2023/11/15 05:43:56;;;;;;;16.90;9.30;;;;;;;6.04;88.95;94696.57;110715;1273;22170;-78
2023/11/15 05:46:25;;;;;;;22.40;13.50;;;;;;;6.04;88.84;94689.92;110723;1273;22118;-78
2023/11/15 05:48:53;;;;;;;13.00;8.20;;;;;;;6.07;88.66;94684.45;110689;1273;22184;-79
2023/11/15 05:51:22;;;;;;;6.30;3.80;;;;;;;6.15;89.04;94670.38;110684;1273;22125;-79
2023/11/15 05:53:50;;;;;;;8.00;4.30;;;;;;;6.20;88.78;94669.77;110673;1273;22141;-79
2023/11/15 05:56:18;;;;;;;7.10;4.30;;;;;;;6.21;88.85;94679.36;110703;1273;22117;-79
2023/11/15 05:58:46;;;;;;;6.40;3.60;;;;;;;6.26;89.04;94670.73;110720;1273;22153;-79
2023/11/15 06:01:14;;;;;;;4.60;3.30;;;;;;;6.32;88.92;94663.29;110724;1273;22237;-79
2023/11/15 06:03:42;;;;;;;35.60;15.20;;;;;;;6.34;88.75;94651.55;110671;1273;22205;-82
2023/11/15 06:06:11;;;;;;;7.60;4.10;;;;;;;6.37;88.62;94650.62;110602;1273;22100;-80
2023/11/15 06:08:39;;;;;;;6.80;3.50;;;;;;;6.44;88.83;94652.42;110698;1273;22948;-82
2023/11/15 06:11:07;;;;;;;5.60;2.70;;;;;;;6.45;88.25;94667.77;110591;1273;22129;-80
2023/11/15 06:13:37;;;;;;;3.80;1.90;;;;;;;6.53;88.75;94679.33;110700;1273;22614;-83
2023/11/15 06:16:06;;;;;;;2.30;1.70;;;;;;;6.56;88.14;94677.88;110707;1273;22837;-82
2023/11/15 06:18:35;;;;;;;5.20;2.90;;;;;;;6.57;88.12;94679.61;110677;1273;22152;-83
2023/11/15 06:21:04;;;;;;;4.80;3.50;;;;;;;6.65;88.58;94691.18;110709;1273;22172;-81
2023/11/15 06:23:34;;;;;;;1.40;0.90;;;;;;;6.72;88.24;94690.19;110711;1273;22119;-80
2023/11/15 06:26:02;;;;;;;3.70;1.90;;;;;;;6.67;87.38;94685.20;110717;1273;22853;-81
2023/11/15 06:28:34;;;;;;;31.30;16.60;;;;;;;6.70;88.01;94684.11;110694;1273;22127;-81
2023/11/15 06:31:04;;;;;;;25.00;12.20;;;;;;;6.80;88.41;94682.86;110704;1273;22244;-81
2023/11/15 06:33:33;;;;;;;17.20;10.60;;;;;;;6.88;88.38;94684.63;111078;1260;22188;-82
2023/11/15 06:36:03;;;;;;;25.40;14.90;;;;;;;6.89;87.48;94693.54;110706;1273;22188;-81
2023/11/15 06:38:32;;;;;;;23.80;14.90;;;;;;;6.93;87.92;94697.65;110626;1273;22753;-83
2023/11/15 06:41:01;;;;;;;24.60;13.60;;;;;;;7.03;87.55;94697.98;110695;1273;22174;-81
2023/11/15 06:43:29;;;;;;;21.30;12.10;;;;;;;7.03;87.13;94697.29;110693;1273;22119;-83
2023/11/15 06:45:57;;;;;;;14.70;10.10;;;;;;;7.08;87.36;94695.96;110702;1273;22361;-83
2023/11/15 06:48:25;;;;;;;11.50;7.30;;;;;;;7.13;87.14;94690.10;110689;1273;22187;-83
2023/11/15 06:50:54;;;;;;;15.20;9.70;;;;;;;7.16;87.01;94689.70;110736;1273;22112;-84
2023/11/15 06:53:22;;;;;;;25.90;17.00;;;;;;;7.10;86.65;94684.90;110698;1273;22282;-81
2023/11/15 06:55:50;;;;;;;20.60;13.50;;;;;;;7.07;86.54;94689.00;110717;1273;22938;-82
2023/11/15 06:58:19;;;;;;;20.60;11.80;;;;;;;7.01;86.64;94698.37;110700;1272;22188;-84
2023/11/15 07:00:49;;;;;;;18.00;9.40;;;;;;;7.01;86.50;94704.86;110608;1272;22167;-81
2023/11/15 07:03:18;;;;;;;11.80;7.30;;;;;;;6.96;86.51;94708.45;110599;1273;22329;-79
2023/11/15 07:05:48;;;;;;;7.70;5.60;;;;;;;6.93;86.37;94707.63;110713;1267;22206;-81
2023/11/15 07:08:17;;;;;;;9.80;5.40;;;;;;;6.87;86.57;94704.58;110700;1273;22270;-83
2023/11/15 07:10:45;;;;;;;29.90;21.10;;;;;;;6.83;87.00;94704.12;110662;1266;22187;-85
2023/11/15 07:13:13;;;;;;;17.10;12.60;;;;;;;6.80;87.42;94702.44;110652;1273;22208;-84
2023/11/15 07:15:44;;;;;;;25.70;16.00;;;;;;;6.80;87.53;94701.92;110688;1273;22135;-85
2023/11/15 07:18:13;;;;;;;37.80;18.40;;;;;;;6.75;87.50;94706.55;110721;1273;22194;-83
2023/11/15 07:20:42;;;;;;;40.50;22.30;;;;;;;6.68;87.60;94715.23;110704;1273;22109;-83
2023/11/15 07:23:11;;;;;;;23.20;12.50;;;;;;;6.63;87.74;94717.94;110689;1273;22222;-83
2023/11/15 07:25:39;;;;;;;22.40;14.00;;;;;;;6.61;87.88;94729.52;110727;1273;22146;-83
2023/11/15 07:28:09;;;;;;;33.20;19.60;;;;;;;6.59;87.96;94729.02;110566;1273;22336;-82
2023/11/15 07:30:38;;;;;;;53.10;28.40;;;;;;;6.54;87.99;94728.77;110555;1273;22285;-81
2023/11/15 07:33:06;;;;;;;38.80;20.10;;;;;;;6.50;88.11;94729.54;110678;1273;22143;-83
2023/11/15 07:35:36;;;;;;;31.70;15.50;;;;;;;6.47;88.22;94738.66;110680;1273;22121;-82
2023/11/15 07:38:07;;;;;;;47.90;25.20;;;;;;;6.46;88.23;94744.61;110748;1273;22920;-81
2023/11/15 07:40:39;;;;;;;32.30;16.80;;;;;;;6.48;88.53;94747.73;110695;1273;22588;-84
2023/11/15 07:43:08;;;;;;;114.30;51.70;;;;;;;6.48;88.80;94743.00;110730;1269;22208;-82
2023/11/15 07:45:38;;;;;;;86.70;42.50;;;;;;;6.50;88.68;94731.80;110633;1273;22399;-81
2023/11/15 07:48:10;;;;;;;105.50;54.50;;;;;;;6.53;88.79;94728.25;110723;1273;22211;-80
2023/11/15 07:50:38;;;;;;;74.80;39.20;;;;;;;6.55;89.18;94715.48;110716;1273;22258;-82
2023/11/15 07:53:06;;;;;;;103.80;55.70;;;;;;;6.58;89.15;94715.07;110582;1273;22307;-81
2023/11/15 07:55:42;;;;;;;69.20;36.40;;;;;;;6.64;89.60;94721.25;110700;1273;22126;-80
2023/11/15 07:58:11;;;;;;;44.00;23.80;;;;;;;6.70;89.28;94737.58;110710;1273;22200;-81
2023/11/15 08:00:40;;;;;;;35.30;20.10;;;;;;;6.74;89.37;94739.43;110700;1273;22901;-80
2023/11/15 08:03:12;;;;;;;29.10;17.50;;;;;;;6.80;89.76;94738.79;110693;1273;22337;-81
2023/11/15 08:05:41;;;;;;;18.40;10.00;;;;;;;6.89;89.77;94741.25;110686;1273;22219;-83
2023/11/15 08:08:10;;;;;;;9.80;5.70;;;;;;;7.01;89.85;94744.89;110573;1274;22344;-82
2023/11/15 08:10:42;;;;;;;3.60;2.10;;;;;;;7.19;90.37;94749.80;110590;1274;22366;-82
2023/11/15 08:13:10;;;;;;;2.10;1.40;;;;;;;7.38;90.17;94747.86;110595;1274;22815;-84
2023/11/15 08:15:39;;;;;;;3.80;2.10;;;;;;;7.53;89.39;94749.48;110576;1274;22123;-83
2023/11/15 08:18:08;;;;;;;3.80;2.00;;;;;;;7.72;89.39;94759.58;110617;1274;22121;-83
2023/11/15 08:20:37;;;;;;;1.60;1.20;;;;;;;7.87;89.04;94753.67;110561;1274;23080;-83
2023/11/15 08:23:06;;;;;;;5.40;4.50;;;;;;;8.01;88.61;94753.20;110611;1274;22929;-84
2023/11/15 08:25:34;;;;;;;4.30;1.60;;;;;;;8.15;88.85;94750.60;110602;1274;22160;-84
2023/11/15 08:28:03;;;;;;;1.30;1.10;;;;;;;8.27;88.36;94749.45;110587;1274;22622;-84
2023/11/15 08:30:33;;;;;;;1.20;1.00;;;;;;;8.31;87.49;94756.54;110563;1274;22196;-84
2023/11/15 08:33:01;;;;;;;0.40;0.40;;;;;;;8.31;87.17;94758.98;110590;1274;22923;-82
2023/11/15 08:35:29;;;;;;;0.10;0.10;;;;;;;8.29;85.30;94755.35;110608;1274;23037;-82
2023/11/15 08:37:58;;;;;;;0.90;0.80;;;;;;;8.31;85.88;94755.16;110587;1274;22151;-83
2023/11/15 08:40:26;;;;;;;0.60;0.60;;;;;;;8.32;85.34;94751.62;110611;1274;22786;-82
2023/11/15 08:42:57;;;;;;;0.60;0.50;;;;;;;8.29;84.77;94743.98;110604;1274;22191;-81
2023/11/15 08:45:25;;;;;;;1.30;0.50;;;;;;;8.31;84.72;94748.13;110571;1274;22149;-82
2023/11/15 08:47:56;;;;;;;0.10;0.10;;;;;;;8.38;84.40;94741.48;110573;1274;22176;-82
2023/11/15 08:50:27;;;;;;;0.30;0.30;;;;;;;8.46;83.87;94734.30;110615;1274;22915;-83
2023/11/15 08:52:56;;;;;;;2.60;1.90;;;;;;;8.55;84.10;94736.37;110564;1274;22113;-84
2023/11/15 08:55:24;;;;;;;2.00;1.80;;;;;;;8.67;84.51;94735.89;110639;1273;22154;-85
2023/11/15 08:57:53;;;;;;;0.20;0.20;;;;;;;8.81;83.17;94735.20;110718;1273;22820;-82
2023/11/15 09:00:21;;;;;;;0.80;0.50;;;;;;;8.97;82.34;94732.15;110717;1273;22269;-82
2023/11/15 09:02:50;;;;;;;0.20;0.20;;;;;;;9.17;82.08;94733.89;110695;1273;23037;-81
2023/11/15 09:05:22;;;;;;;1.20;1.10;;;;;;;9.41;82.30;94729.73;110719;1273;22327;-85
2023/11/15 09:07:51;;;;;;;0.30;0.30;;;;;;;9.57;80.60;94729.48;110730;1273;22130;-81
2023/11/15 09:10:20;;;;;;;0.20;0.20;;;;;;;9.62;78.59;94728.80;110570;1273;22302;-84
2023/11/15 09:12:49;;;;;;;0.30;0.30;;;;;;;9.71;78.76;94733.79;110649;1273;22161;-83
2023/11/15 09:15:20;;;;;;;0.80;0.40;;;;;;;9.78;78.68;94724.45;110621;1273;22133;-82
2023/11/15 09:17:50;;;;;;;0.20;0.20;;;;;;;9.83;77.02;94724.70;110571;1274;22169;-82
2023/11/15 09:20:25;;;;;;;0.20;0.20;;;;;;;9.82;76.32;94714.87;110567;1274;22159;-83
2023/11/15 09:22:55;;;;;;;0.30;0.30;;;;;;;9.83;76.37;94708.86;110519;1274;22218;-85
2023/11/15 09:25:26;;;;;;;0.90;0.50;;;;;;;9.99;76.98;94715.23;110581;1274;22177;-85
2023/11/15 09:27:56;;;;;;;1.20;0.30;;;;;;;10.22;77.04;94712.60;110668;1273;22442;-83
2023/11/15 09:30:25;;;;;;;0.40;0.40;;;;;;;10.29;75.67;94718.91;110703;1262;22848;-83
2023/11/15 09:32:54;;;;;;;0.20;0.20;;;;;;;10.25;73.82;94716.02;110546;1273;22323;-81
2023/11/15 09:35:27;;;;;;;0.10;0.10;;;;;;;10.23;72.12;94718.02;110683;1273;22311;-85
2023/11/15 09:37:57;;;;;;;0.80;0.20;;;;;;;10.31;71.38;94712.17;110655;1273;22193;-81
2023/11/15 09:40:27;;;;;;;0.70;0.50;;;;;;;10.22;70.65;94700.11;110584;1271;22209;-79
2023/11/15 09:43:00;;;;;;;0.50;0.40;;;;;;;10.21;71.65;94699.11;110582;1273;22867;-79
2023/11/15 09:45:31;;;;;;;0.20;0.20;;;;;;;10.30;71.50;94695.11;110598;1273;22227;-82
2023/11/15 09:48:02;;;;;;;0.20;0.20;;;;;;;10.57;69.80;94690.07;110713;1273;22284;-79
2023/11/15 09:50:33;;;;;;;2.00;0.20;;;;;;;10.98;70.46;94683.38;110582;1273;22378;-80
2023/11/15 09:53:05;;;;;;;0.40;0.40;;;;;;;11.52;70.81;94678.64;110746;1273;22249;-79
2023/11/15 09:55:33;;;;;;;0.20;0.20;;;;;;;12.03;67.26;94670.40;110621;1273;22147;-80
2023/11/15 09:58:02;;;;;;;0.80;0.60;;;;;;;12.47;66.76;94662.98;110734;1273;22109;-79
2023/11/15 10:00:32;;;;;;;0.50;0.50;;;;;;;12.90;65.48;94663.70;110569;1274;22891;-80
2023/11/15 10:03:01;;;;;;;0.40;0.20;;;;;;;13.04;64.77;94657.98;110575;1274;22205;-81
2023/11/15 10:05:32;;;;;;;0.40;0.30;;;;;;;13.24;63.92;94661.69;110563;1275;22129;-79
2023/11/15 10:08:15;;;;;;;0.40;0.30;;;;;;;13.21;62.50;94656.73;110603;1274;22106;-80
2023/11/15 10:10:47;;;;;;;0.40;0.30;;;;;;;12.91;60.88;94660.99;110607;1274;22231;-82
2023/11/15 10:13:18;;;;;;;0.80;0.30;;;;;;;12.60;60.98;94666.52;110394;1274;254694;-80
2023/11/15 10:15:46;;;;;;;0.50;0.20;;;;;;;12.22;63.03;94676.70;110600;1274;22122;-81
2023/11/15 10:18:27;;;;;;;1.70;0.30;;;;;;;11.93;63.98;94675.54;110452;1274;22309;-80
2023/11/15 10:21:11;;;;;;;0.80;0.20;;;;;;;11.75;65.56;94684.27;110614;1274;22137;-80
2023/11/15 10:23:40;;;;;;;2.90;0.40;;;;;;;11.45;65.83;94690.69;110529;1274;22973;-80
2023/11/15 10:26:10;;;;;;;0.40;0.30;;;;;;;11.44;66.29;94686.15;110566;1274;22763;-80
2023/11/15 10:28:43;;;;;;;0.20;0.20;;;;;;;11.28;65.79;94686.56;110545;1274;22160;-78
2023/11/15 10:31:14;;;;;;;0.60;0.20;;;;;;;11.08;66.82;94682.67;110420;1274;22926;-80
2023/11/15 10:33:49;;;;;;;0.40;0.30;;;;;;;11.02;67.02;94681.11;110449;1274;22866;-78
2023/11/15 10:36:19;;;;;;;0.20;0.20;;;;;;;10.91;67.69;94692.45;110606;1274;22126;-80
2023/11/15 10:38:51;;;;;;;0.20;0.20;;;;;;;10.73;67.93;94696.00;110436;1263;22153;-80
2023/11/15 10:41:21;;;;;;;1.00;0.30;;;;;;;10.40;69.17;94704.50;110458;1274;22945;-80
2023/11/15 10:43:51;;;;;;;0.60;0.20;;;;;;;10.19;70.61;94705.30;110631;1274;22232;-80
2023/11/15 10:46:30;;;;;;;1.20;0.20;;;;;;;10.30;71.25;94712.88;110577;1274;22130;-81
2023/11/15 10:49:01;;;;;;;0.20;0.20;;;;;;;10.66;72.06;94710.17;110592;1274;22927;-79
2023/11/15 10:51:48;;;;;;;0.50;0.20;;;;;;;10.60;70.37;94723.20;110586;1274;22145;-81
2023/11/15 10:54:17;;;;;;;0.10;0.10;;;;;;;10.40;71.47;94735.27;110627;1274;22128;-79
2023/11/15 10:56:49;;;;;;;0.30;0.20;;;;;;;10.20;71.10;94742.70;110594;1274;23200;-80
2023/11/15 10:59:19;;;;;;;0.50;0.40;;;;;;;10.06;71.96;94739.43;110500;1274;22308;-81
2023/11/15 11:01:47;;;;;;;0.60;0.20;;;;;;;9.90;72.42;94732.88;110595;1274;22119;-81
2023/11/15 11:04:15;;;;;;;0.40;0.30;;;;;;;9.81;72.67;94736.85;110575;1274;22175;-79
2023/11/15 11:07:05;;;;;;;1.50;0.40;;;;;;;9.70;72.68;94744.38;110575;1274;22303;-79
2023/11/15 11:09:47;;;;;;;0.30;0.30;;;;;;;9.58;72.68;94742.61;110591;1274;22791;-80
2023/11/15 11:12:18;;;;;;;0.40;0.30;;;;;;;9.47;73.11;94740.64;110603;1275;22907;-81
2023/11/15 11:14:48;;;;;;;1.00;0.40;;;;;;;9.39;73.47;94738.73;110516;1274;22114;-80
2023/11/15 11:17:34;;;;;;;0.30;0.30;;;;;;;9.39;73.47;94742.42;110565;1274;22125;-81
2023/11/15 11:20:24;;;;;;;0.70;0.30;;;;;;;9.37;73.59;94744.77;110600;1274;22128;-81
2023/11/15 11:23:10;;;;;;;0.40;0.40;;;;;;;9.39;73.94;94755.23;110586;1274;22123;-79
2023/11/15 11:25:39;;;;;;;0.60;0.30;;;;;;;9.36;73.18;94752.88;110638;1275;22129;-79
2023/11/15 11:28:12;;;;;;;1.20;0.60;;;;;;;9.31;73.33;94754.77;110603;1274;22256;-81
2023/11/15 11:30:42;;;;;;;1.20;0.40;;;;;;;9.30;73.37;94770.23;110595;1274;22124;-81
2023/11/15 11:33:15;;;;;;;1.30;0.60;;;;;;;9.27;73.13;94768.19;110602;1274;22252;-81
2023/11/15 11:35:46;;;;;;;0.50;0.40;;;;;;;9.19;73.71;94767.90;110436;1274;22708;-81
2023/11/15 11:38:42;;;;;;;0.20;0.20;;;;;;;9.14;74.42;94770.32;110621;1274;22126;-80
2023/11/15 11:41:13;;;;;;;0.40;0.40;;;;;;;9.12;74.72;94767.73;110595;1274;22227;-81